sensor_id;sensor_type;location;lat;lon;timestamp;pressure;altitude;pressure_sealevel;temperature;humidity
69855;BME280;57146;48.140;16.304;2023-03-12T00:00:05;99008.06;;;1.62;58.15
69855;BME280;57146;48.140;16.304;2023-03-12T00:02:33;99005.69;;;1.55;58.18
69855;BME280;57146;48.140;16.304;2023-03-12T00:05:00;99011.94;;;1.59;59.36
69855;BME280;57146;48.140;16.304;2023-03-12T00:07:27;99009.06;;;1.56;58.59
69855;BME280;57146;48.140;16.304;2023-03-12T00:09:54;99014.22;;;1.51;58.99
69855;BME280;57146;48.140;16.304;2023-03-12T00:12:21;99021.44;;;1.49;59.16
69855;BME280;57146;48.140;16.304;2023-03-12T00:14:48;99022.44;;;1.42;59.84
69855;BME280;57146;48.140;16.304;2023-03-12T00:17:15;99026.81;;;1.42;60.43
69855;BME280;57146;48.140;16.304;2023-03-12T00:19:42;99024.75;;;1.39;60.69
69855;BME280;57146;48.140;16.304;2023-03-12T00:22:09;99025.22;;;1.36;60.72
69855;BME280;57146;48.140;16.304;2023-03-12T00:24:36;99031.41;;;1.35;60.58
69855;BME280;57146;48.140;16.304;2023-03-12T00:27:03;99028.34;;;1.38;61.07
69855;BME280;57146;48.140;16.304;2023-03-12T00:29:30;99037.94;;;1.37;61.04
69855;BME280;57146;48.140;16.304;2023-03-12T00:31:57;99033.00;;;1.36;61.19
69855;BME280;57146;48.140;16.304;2023-03-12T00:34:24;99028.53;;;1.31;60.53
69855;BME280;57146;48.140;16.304;2023-03-12T00:36:51;99029.63;;;1.35;60.44
69855;BME280;57146;48.140;16.304;2023-03-12T00:39:18;99028.84;;;1.35;61.15
69855;BME280;57146;48.140;16.304;2023-03-12T00:41:45;99032.94;;;1.31;60.60
69855;BME280;57146;48.140;16.304;2023-03-12T00:44:12;99035.53;;;1.31;60.99
69855;BME280;57146;48.140;16.304;2023-03-12T00:46:39;99035.53;;;1.31;61.04
69855;BME280;57146;48.140;16.304;2023-03-12T00:49:06;99031.66;;;1.28;61.07
69855;BME280;57146;48.140;16.304;2023-03-12T00:51:58;99033.19;;;1.29;60.79
69855;BME280;57146;48.140;16.304;2023-03-12T00:54:25;99032.91;;;1.26;61.14
69855;BME280;57146;48.140;16.304;2023-03-12T00:56:53;99028.75;;;1.25;60.96
69855;BME280;57146;48.140;16.304;2023-03-12T00:59:20;99037.06;;;1.27;60.73
69855;BME280;57146;48.140;16.304;2023-03-12T01:01:48;99039.94;;;1.30;60.31
69855;BME280;57146;48.140;16.304;2023-03-12T01:04:15;99046.66;;;1.26;60.94
69855;BME280;57146;48.140;16.304;2023-03-12T01:06:42;99040.13;;;1.24;60.91
69855;BME280;57146;48.140;16.304;2023-03-12T01:09:09;99050.28;;;1.25;61.33
69855;BME280;57146;48.140;16.304;2023-03-12T01:11:37;99046.78;;;1.14;61.30
69855;BME280;57146;48.140;16.304;2023-03-12T01:14:07;99050.34;;;1.08;61.13
69855;BME280;57146;48.140;16.304;2023-03-12T01:16:34;99043.00;;;1.00;61.94
69855;BME280;57146;48.140;16.304;2023-03-12T01:19:02;99050.19;;;0.93;61.96
69855;BME280;57146;48.140;16.304;2023-03-12T01:21:55;99042.41;;;0.93;61.66
69855;BME280;57146;48.140;16.304;2023-03-12T01:24:22;99043.38;;;0.87;62.19
69855;BME280;57146;48.140;16.304;2023-03-12T01:26:49;99041.44;;;0.77;62.20
69855;BME280;57146;48.140;16.304;2023-03-12T01:29:18;99046.84;;;0.76;62.76
69855;BME280;57146;48.140;16.304;2023-03-12T01:31:45;99051.34;;;0.63;62.76
69855;BME280;57146;48.140;16.304;2023-03-12T01:34:13;99057.97;;;0.54;63.38
69855;BME280;57146;48.140;16.304;2023-03-12T01:36:41;99064.47;;;0.57;63.01
69855;BME280;57146;48.140;16.304;2023-03-12T01:39:08;99081.34;;;0.59;62.92
69855;BME280;57146;48.140;16.304;2023-03-12T01:41:35;99072.25;;;0.57;63.39
69855;BME280;57146;48.140;16.304;2023-03-12T01:44:04;99076.25;;;0.64;63.42
69855;BME280;57146;48.140;16.304;2023-03-12T01:46:40;99078.97;;;0.75;62.23
69855;BME280;57146;48.140;16.304;2023-03-12T01:49:32;99082.53;;;0.90;61.71
69855;BME280;57146;48.140;16.304;2023-03-12T01:52:12;99081.06;;;1.00;61.83
69855;BME280;57146;48.140;16.304;2023-03-12T01:54:56;99072.13;;;1.07;60.97
69855;BME280;57146;48.140;16.304;2023-03-12T01:57:31;99064.75;;;0.99;61.89
69855;BME280;57146;48.140;16.304;2023-03-12T02:00:29;99062.41;;;0.76;62.75
69855;BME280;57146;48.140;16.304;2023-03-12T02:03:01;99056.47;;;0.58;62.47
69855;BME280;57146;48.140;16.304;2023-03-12T02:08:04;99050.59;;;0.46;63.12
69855;BME280;57146;48.140;16.304;2023-03-12T02:10:31;99049.22;;;0.38;63.66
69855;BME280;57146;48.140;16.304;2023-03-12T02:12:58;99058.41;;;0.29;64.21
69855;BME280;57146;48.140;16.304;2023-03-12T02:15:26;99059.03;;;0.19;64.23
69855;BME280;57146;48.140;16.304;2023-03-12T02:17:55;99066.97;;;0.13;65.16
69855;BME280;57146;48.140;16.304;2023-03-12T02:20:48;99066.25;;;0.17;64.94
69855;BME280;57146;48.140;16.304;2023-03-12T02:23:20;99069.00;;;0.28;63.82
69855;BME280;57146;48.140;16.304;2023-03-12T02:25:52;99069.78;;;0.28;64.48
69855;BME280;57146;48.140;16.304;2023-03-12T02:28:22;99082.25;;;0.31;64.22
69855;BME280;57146;48.140;16.304;2023-03-12T02:30:53;99078.88;;;0.47;63.00
69855;BME280;57146;48.140;16.304;2023-03-12T02:33:23;99085.59;;;0.65;62.01
69855;BME280;57146;48.140;16.304;2023-03-12T02:35:50;99081.25;;;0.71;61.86
69855;BME280;57146;48.140;16.304;2023-03-12T02:38:45;99080.00;;;0.74;61.67
69855;BME280;57146;48.140;16.304;2023-03-12T02:41:27;99089.25;;;0.69;62.92
69855;BME280;57146;48.140;16.304;2023-03-12T02:46:42;99099.91;;;0.51;62.73
69855;BME280;57146;48.140;16.304;2023-03-12T02:49:10;99102.09;;;0.42;63.29
69855;BME280;57146;48.140;16.304;2023-03-12T02:51:39;99105.25;;;0.28;63.78
69855;BME280;57146;48.140;16.304;2023-03-12T02:54:08;99106.09;;;0.16;64.31
69855;BME280;57146;48.140;16.304;2023-03-12T02:56:36;99102.41;;;0.12;64.77
69855;BME280;57146;48.140;16.304;2023-03-12T02:59:04;99108.00;;;0.04;65.10
69855;BME280;57146;48.140;16.304;2023-03-12T03:01:35;99114.81;;;-0.07;64.82
69855;BME280;57146;48.140;16.304;2023-03-12T03:04:05;99117.59;;;-0.08;64.84
69855;BME280;57146;48.140;16.304;2023-03-12T03:06:35;99117.16;;;-0.05;64.94
69855;BME280;57146;48.140;16.304;2023-03-12T03:09:04;99121.13;;;-0.14;65.05
69855;BME280;57146;48.140;16.304;2023-03-12T03:11:31;99119.56;;;-0.15;65.55
69855;BME280;57146;48.140;16.304;2023-03-12T03:14:04;99120.66;;;-0.28;66.17
69855;BME280;57146;48.140;16.304;2023-03-12T03:16:32;99121.31;;;-0.33;65.90
69855;BME280;57146;48.140;16.304;2023-03-12T03:19:03;99127.38;;;-0.56;67.17
69855;BME280;57146;48.140;16.304;2023-03-12T03:21:30;99126.63;;;-0.68;67.15
69855;BME280;57146;48.140;16.304;2023-03-12T03:23:59;99131.50;;;-0.83;68.04
69855;BME280;57146;48.140;16.304;2023-03-12T03:26:26;99139.47;;;-0.85;68.01
69855;BME280;57146;48.140;16.304;2023-03-12T03:28:54;99135.31;;;-0.86;68.00
69855;BME280;57146;48.140;16.304;2023-03-12T03:31:21;99142.53;;;-0.88;68.00
69855;BME280;57146;48.140;16.304;2023-03-12T03:33:48;99140.75;;;-0.99;68.78
69855;BME280;57146;48.140;16.304;2023-03-12T03:36:18;99148.84;;;-0.95;68.36
69855;BME280;57146;48.140;16.304;2023-03-12T03:38:54;99150.63;;;-0.96;68.21
69855;BME280;57146;48.140;16.304;2023-03-12T03:41:22;99153.44;;;-0.98;68.28
69855;BME280;57146;48.140;16.304;2023-03-12T03:43:55;99146.78;;;-0.93;68.40
69855;BME280;57146;48.140;16.304;2023-03-12T03:46:26;99149.81;;;-0.85;68.17
69855;BME280;57146;48.140;16.304;2023-03-12T03:48:58;99146.09;;;-0.77;67.19
69855;BME280;57146;48.140;16.304;2023-03-12T03:51:26;99151.47;;;-0.67;67.25
69855;BME280;57146;48.140;16.304;2023-03-12T03:53:58;99154.94;;;-0.61;66.95
69855;BME280;57146;48.140;16.304;2023-03-12T03:56:27;99154.47;;;-0.58;66.65
69855;BME280;57146;48.140;16.304;2023-03-12T03:58:57;99154.88;;;-0.38;66.01
69855;BME280;57146;48.140;16.304;2023-03-12T04:01:25;99160.72;;;-0.42;66.05
69855;BME280;57146;48.140;16.304;2023-03-12T04:03:55;99162.22;;;-0.58;66.01
69855;BME280;57146;48.140;16.304;2023-03-12T04:06:22;99167.53;;;-0.65;66.68
69855;BME280;57146;48.140;16.304;2023-03-12T04:08:49;99169.91;;;-0.75;67.01
69855;BME280;57146;48.140;16.304;2023-03-12T04:11:20;99167.91;;;-0.85;67.01
69855;BME280;57146;48.140;16.304;2023-03-12T04:13:49;99167.69;;;-0.83;67.49
69855;BME280;57146;48.140;16.304;2023-03-12T04:16:19;99175.34;;;-0.88;67.19
69855;BME280;57146;48.140;16.304;2023-03-12T04:18:48;99177.13;;;-1.01;67.74
69855;BME280;57146;48.140;16.304;2023-03-12T04:21:16;99186.03;;;-1.20;68.56
69855;BME280;57146;48.140;16.304;2023-03-12T04:23:44;99183.66;;;-1.22;68.53
69855;BME280;57146;48.140;16.304;2023-03-12T04:26:12;99182.06;;;-1.23;68.93
69855;BME280;57146;48.140;16.304;2023-03-12T04:28:39;99187.16;;;-1.28;68.83
69855;BME280;57146;48.140;16.304;2023-03-12T04:31:09;99189.59;;;-1.45;69.42
69855;BME280;57146;48.140;16.304;2023-03-12T04:33:41;99198.56;;;-1.47;68.49
69855;BME280;57146;48.140;16.304;2023-03-12T04:36:10;99200.59;;;-1.49;69.14
69855;BME280;57146;48.140;16.304;2023-03-12T04:38:39;99204.50;;;-1.47;69.26
69855;BME280;57146;48.140;16.304;2023-03-12T04:41:10;99206.88;;;-1.45;69.92
69855;BME280;57146;48.140;16.304;2023-03-12T04:43:43;99203.84;;;-1.42;69.24
69855;BME280;57146;48.140;16.304;2023-03-12T04:46:10;99216.53;;;-1.52;69.11
69855;BME280;57146;48.140;16.304;2023-03-12T04:48:39;99211.22;;;-1.57;69.72
69855;BME280;57146;48.140;16.304;2023-03-12T04:51:06;99211.22;;;-1.57;69.79
69855;BME280;57146;48.140;16.304;2023-03-12T04:53:34;99214.25;;;-1.60;69.73
69855;BME280;57146;48.140;16.304;2023-03-12T04:56:01;99211.53;;;-1.65;70.16
69855;BME280;57146;48.140;16.304;2023-03-12T04:58:31;99221.44;;;-1.62;70.28
69855;BME280;57146;48.140;16.304;2023-03-12T05:00:58;99218.50;;;-1.66;70.47
69855;BME280;57146;48.140;16.304;2023-03-12T05:03:27;99222.75;;;-1.72;70.25
69855;BME280;57146;48.140;16.304;2023-03-12T05:05:55;99228.16;;;-1.61;69.43
69855;BME280;57146;48.140;16.304;2023-03-12T05:08:24;99233.66;;;-1.58;69.61
69855;BME280;57146;48.140;16.304;2023-03-12T05:10:51;99236.47;;;-1.59;69.91
69855;BME280;57146;48.140;16.304;2023-03-12T05:13:21;99228.50;;;-1.58;69.66
69855;BME280;57146;48.140;16.304;2023-03-12T05:15:52;99235.78;;;-1.66;69.59
69855;BME280;57146;48.140;16.304;2023-03-12T05:18:20;99233.84;;;-1.71;70.27
69855;BME280;57146;48.140;16.304;2023-03-12T05:21:10;99240.47;;;-1.75;70.32
69855;BME280;57146;48.140;16.304;2023-03-12T05:23:38;99247.22;;;-1.74;70.80
69855;BME280;57146;48.140;16.304;2023-03-12T05:26:19;99242.34;;;-1.82;71.44
69855;BME280;57146;48.140;16.304;2023-03-12T05:28:52;99243.25;;;-1.88;71.65
69855;BME280;57146;48.140;16.304;2023-03-12T05:31:22;99247.75;;;-1.84;71.26
69855;BME280;57146;48.140;16.304;2023-03-12T05:33:51;99238.97;;;-1.83;71.00
69855;BME280;57146;48.140;16.304;2023-03-12T05:36:20;99245.59;;;-1.87;71.61
69855;BME280;57146;48.140;16.304;2023-03-12T05:38:47;99248.16;;;-1.87;71.54
69855;BME280;57146;48.140;16.304;2023-03-12T05:41:27;99255.13;;;-1.87;71.50
69855;BME280;57146;48.140;16.304;2023-03-12T05:44:00;99256.34;;;-1.90;72.03
69855;BME280;57146;48.140;16.304;2023-03-12T05:46:28;99261.41;;;-1.83;72.03
69855;BME280;57146;48.140;16.304;2023-03-12T05:48:57;99271.50;;;-1.82;72.08
69855;BME280;57146;48.140;16.304;2023-03-12T05:51:26;99278.28;;;-1.81;72.12
69855;BME280;57146;48.140;16.304;2023-03-12T05:53:53;99268.41;;;-1.72;71.27
69855;BME280;57146;48.140;16.304;2023-03-12T05:56:20;99276.94;;;-1.72;71.38
69855;BME280;57146;48.140;16.304;2023-03-12T05:58:48;99279.94;;;-1.75;71.62
69855;BME280;57146;48.140;16.304;2023-03-12T06:01:22;99272.78;;;-1.73;72.75
69855;BME280;57146;48.140;16.304;2023-03-12T06:03:51;99280.31;;;-1.71;72.04
69855;BME280;57146;48.140;16.304;2023-03-12T06:06:18;99284.84;;;-1.66;72.15
69855;BME280;57146;48.140;16.304;2023-03-12T06:08:46;99290.25;;;-1.56;71.87
69855;BME280;57146;48.140;16.304;2023-03-12T06:11:13;99299.03;;;-1.46;71.30
69855;BME280;57146;48.140;16.304;2023-03-12T06:13:40;99290.44;;;-1.28;70.93
69855;BME280;57146;48.140;16.304;2023-03-12T06:16:15;99285.97;;;-1.21;71.45
69855;BME280;57146;48.140;16.304;2023-03-12T06:18:52;99295.97;;;-1.12;70.77
69855;BME280;57146;48.140;16.304;2023-03-12T06:21:23;99286.19;;;-1.10;71.60
69855;BME280;57146;48.140;16.304;2023-03-12T06:23:52;99298.34;;;-0.99;70.73
69855;BME280;57146;48.140;16.304;2023-03-12T06:26:24;99294.88;;;-0.93;71.20
69855;BME280;57146;48.140;16.304;2023-03-12T06:28:51;99295.34;;;-0.84;71.48
69855;BME280;57146;48.140;16.304;2023-03-12T06:31:19;99297.13;;;-0.73;70.28
69855;BME280;57146;48.140;16.304;2023-03-12T06:33:48;99303.88;;;-0.60;71.06
69855;BME280;57146;48.140;16.304;2023-03-12T06:36:16;99306.78;;;-0.45;69.90
69855;BME280;57146;48.140;16.304;2023-03-12T06:38:43;99308.34;;;-0.32;68.92
69855;BME280;57146;48.140;16.304;2023-03-12T06:41:15;99307.06;;;-0.18;69.28
69855;BME280;57146;48.140;16.304;2023-03-12T06:43:43;99314.25;;;-0.08;69.12
69855;BME280;57146;48.140;16.304;2023-03-12T06:46:13;99310.06;;;0.03;68.53
69855;BME280;57146;48.140;16.304;2023-03-12T06:48:41;99309.81;;;0.16;67.56
69855;BME280;57146;48.140;16.304;2023-03-12T06:51:10;99311.81;;;0.26;67.47
69855;BME280;57146;48.140;16.304;2023-03-12T06:53:37;99315.25;;;0.43;66.23
69855;BME280;57146;48.140;16.304;2023-03-12T06:56:09;99312.47;;;0.61;63.74
69855;BME280;57146;48.140;16.304;2023-03-12T06:58:37;99311.16;;;0.76;65.13
69855;BME280;57146;48.140;16.304;2023-03-12T07:01:05;99315.31;;;0.93;65.07
69855;BME280;57146;48.140;16.304;2023-03-12T07:04:20;99318.00;;;1.15;63.67
69855;BME280;57146;48.140;16.304;2023-03-12T07:06:47;99304.25;;;1.32;62.76
69855;BME280;57146;48.140;16.304;2023-03-12T07:09:15;99308.59;;;1.48;61.14
69855;BME280;57146;48.140;16.304;2023-03-12T07:11:43;99310.44;;;1.70;59.99
69855;BME280;57146;48.140;16.304;2023-03-12T07:14:35;99316.13;;;1.88;58.00
69855;BME280;57146;48.140;16.304;2023-03-12T07:17:02;99304.31;;;1.98;57.79
69855;BME280;57146;48.140;16.304;2023-03-12T07:19:29;99304.19;;;2.09;56.38
69855;BME280;57146;48.140;16.304;2023-03-12T07:21:57;99308.41;;;2.15;56.44
69855;BME280;57146;48.140;16.304;2023-03-12T07:24:24;99306.88;;;2.20;56.23
69855;BME280;57146;48.140;16.304;2023-03-12T07:26:52;99313.22;;;2.29;56.16
69855;BME280;57146;48.140;16.304;2023-03-12T07:29:19;99312.97;;;2.30;55.86
69855;BME280;57146;48.140;16.304;2023-03-12T07:31:46;99311.25;;;2.41;55.98
69855;BME280;57146;48.140;16.304;2023-03-12T07:34:18;99324.91;;;2.53;56.04
69855;BME280;57146;48.140;16.304;2023-03-12T07:36:45;99323.69;;;2.61;55.26
69855;BME280;57146;48.140;16.304;2023-03-12T07:39:12;99319.31;;;2.67;54.62
69855;BME280;57146;48.140;16.304;2023-03-12T07:42:04;99323.78;;;2.71;54.77
69855;BME280;57146;48.140;16.304;2023-03-12T07:44:34;99325.91;;;2.74;56.70
69855;BME280;57146;48.140;16.304;2023-03-12T07:47:01;99327.56;;;2.85;54.83
69855;BME280;57146;48.140;16.304;2023-03-12T07:49:48;99319.28;;;2.94;55.11
69855;BME280;57146;48.140;16.304;2023-03-12T07:52:15;99328.50;;;3.06;53.83
69855;BME280;57146;48.140;16.304;2023-03-12T07:54:42;99333.25;;;3.15;53.50
69855;BME280;57146;48.140;16.304;2023-03-12T07:57:09;99331.47;;;3.20;53.68
69855;BME280;57146;48.140;16.304;2023-03-12T08:00:01;99330.72;;;3.25;52.66
69855;BME280;57146;48.140;16.304;2023-03-12T08:02:37;99326.84;;;3.27;52.91
69855;BME280;57146;48.140;16.304;2023-03-12T08:05:04;99332.53;;;3.24;53.59
69855;BME280;57146;48.140;16.304;2023-03-12T08:07:32;99333.91;;;3.37;52.31
69855;BME280;57146;48.140;16.304;2023-03-12T08:10:02;99332.91;;;3.43;52.00
69855;BME280;57146;48.140;16.304;2023-03-12T08:12:29;99336.88;;;3.51;51.31
69855;BME280;57146;48.140;16.304;2023-03-12T08:14:56;99327.78;;;3.53;52.47
69855;BME280;57146;48.140;16.304;2023-03-12T08:17:23;99328.28;;;3.55;51.51
69855;BME280;57146;48.140;16.304;2023-03-12T08:19:50;99336.63;;;3.52;52.50
69855;BME280;57146;48.140;16.304;2023-03-12T08:22:42;99331.72;;;3.61;52.40
69855;BME280;57146;48.140;16.304;2023-03-12T08:25:13;99337.22;;;3.65;52.15
69855;BME280;57146;48.140;16.304;2023-03-12T08:27:40;99322.66;;;3.69;51.58
69855;BME280;57146;48.140;16.304;2023-03-12T08:30:11;99332.13;;;3.85;51.77
69855;BME280;57146;48.140;16.304;2023-03-12T08:32:38;99325.63;;;3.93;49.54
69855;BME280;57146;48.140;16.304;2023-03-12T08:35:06;99331.63;;;3.98;48.58
69855;BME280;57146;48.140;16.304;2023-03-12T08:37:33;99320.97;;;4.00;49.02
69855;BME280;57146;48.140;16.304;2023-03-12T08:40:00;99330.91;;;4.08;49.02
69855;BME280;57146;48.140;16.304;2023-03-12T08:42:28;99329.56;;;4.00;49.37
69855;BME280;57146;48.140;16.304;2023-03-12T08:44:55;99337.38;;;4.05;48.60
69855;BME280;57146;48.140;16.304;2023-03-12T08:47:22;99336.88;;;4.08;48.13
69855;BME280;57146;48.140;16.304;2023-03-12T08:49:49;99334.50;;;4.02;46.92
69855;BME280;57146;48.140;16.304;2023-03-12T08:52:16;99329.53;;;3.90;47.01
69855;BME280;57146;48.140;16.304;2023-03-12T08:54:43;99336.56;;;3.90;46.46
69855;BME280;57146;48.140;16.304;2023-03-12T08:57:10;99335.50;;;3.91;46.77
69855;BME280;57146;48.140;16.304;2023-03-12T08:59:37;99336.34;;;3.96;47.48
69855;BME280;57146;48.140;16.304;2023-03-12T09:02:04;99339.50;;;4.08;47.64
69855;BME280;57146;48.140;16.304;2023-03-12T09:04:32;99341.13;;;4.20;46.63
69855;BME280;57146;48.140;16.304;2023-03-12T09:07:01;99341.13;;;4.25;45.68
69855;BME280;57146;48.140;16.304;2023-03-12T09:09:28;99345.28;;;4.26;44.96
69855;BME280;57146;48.140;16.304;2023-03-12T09:11:55;99345.31;;;4.31;45.89
69855;BME280;57146;48.140;16.304;2023-03-12T09:14:48;99353.41;;;4.35;45.67
69855;BME280;57146;48.140;16.304;2023-03-12T09:17:29;99342.69;;;4.26;45.28
69855;BME280;57146;48.140;16.304;2023-03-12T09:19:56;99340.66;;;4.38;44.97
69855;BME280;57146;48.140;16.304;2023-03-12T09:22:23;99341.16;;;4.40;45.12
69855;BME280;57146;48.140;16.304;2023-03-12T09:24:50;99339.09;;;4.42;45.27
69855;BME280;57146;48.140;16.304;2023-03-12T09:27:20;99335.75;;;4.52;45.33
69855;BME280;57146;48.140;16.304;2023-03-12T09:29:47;99336.81;;;4.66;45.71
69855;BME280;57146;48.140;16.304;2023-03-12T09:32:26;99338.09;;;4.69;44.68
69855;BME280;57146;48.140;16.304;2023-03-12T09:34:54;99340.19;;;4.72;44.23
69855;BME280;57146;48.140;16.304;2023-03-12T09:50:24;99336.81;;;4.97;45.41
69855;BME280;57146;48.140;16.304;2023-03-12T09:55:42;99324.31;;;4.89;44.64
69855;BME280;57146;48.140;16.304;2023-03-12T09:58:26;99329.25;;;4.85;45.08
69855;BME280;57146;48.140;16.304;2023-03-12T10:17:57;99320.63;;;5.36;44.91
69855;BME280;57146;48.140;16.304;2023-03-12T10:26:37;99329.25;;;5.31;45.21
69855;BME280;57146;48.140;16.304;2023-03-12T10:28:48;99319.03;;;5.55;45.08
69855;BME280;57146;48.140;16.304;2023-03-12T10:31:20;99313.75;;;5.65;45.23
69855;BME280;57146;48.140;16.304;2023-03-12T10:34:57;99309.03;;;5.78;43.54
69855;BME280;57146;48.140;16.304;2023-03-12T10:37:34;99306.66;;;5.86;44.01
69855;BME280;57146;48.140;16.304;2023-03-12T10:40:05;99302.19;;;5.92;44.10
69855;BME280;57146;48.140;16.304;2023-03-12T10:42:32;99308.22;;;5.92;43.73
69855;BME280;57146;48.140;16.304;2023-03-12T10:47:34;99300.41;;;5.77;44.25
69855;BME280;57146;48.140;16.304;2023-03-12T10:50:25;99295.72;;;5.69;43.58
69855;BME280;57146;48.140;16.304;2023-03-12T10:53:21;99293.38;;;5.72;43.71
69855;BME280;57146;48.140;16.304;2023-03-12T10:56:16;99291.81;;;5.76;43.26
69855;BME280;57146;48.140;16.304;2023-03-12T10:58:49;99284.47;;;5.79;43.18
69855;BME280;57146;48.140;16.304;2023-03-12T11:01:29;99286.03;;;5.80;43.43
69855;BME280;57146;48.140;16.304;2023-03-12T11:06:41;99282.63;;;5.79;43.06
69855;BME280;57146;48.140;16.304;2023-03-12T11:09:35;99271.63;;;5.97;43.79
69855;BME280;57146;48.140;16.304;2023-03-12T11:12:28;99265.31;;;6.09;43.41
69855;BME280;57146;48.140;16.304;2023-03-12T11:14:57;99259.50;;;6.17;43.43
69855;BME280;57146;48.140;16.304;2023-03-12T11:17:27;99260.47;;;6.26;44.06
69855;BME280;57146;48.140;16.304;2023-03-12T11:20:23;99262.03;;;6.32;42.69
69855;BME280;57146;48.140;16.304;2023-03-12T11:22:51;99261.72;;;6.39;42.02
69855;BME280;57146;48.140;16.304;2023-03-12T11:25:27;99251.00;;;6.40;42.54
69855;BME280;57146;48.140;16.304;2023-03-12T11:27:58;99237.34;;;6.48;44.06
69855;BME280;57146;48.140;16.304;2023-03-12T11:30:36;99234.91;;;6.57;42.33
69855;BME280;57146;48.140;16.304;2023-03-12T11:33:04;99224.88;;;6.69;42.34
69855;BME280;57146;48.140;16.304;2023-03-12T11:46:50;99214.97;;;6.95;41.76
69855;BME280;57146;48.140;16.304;2023-03-12T12:00:20;99197.03;;;7.08;41.63
69855;BME280;57146;48.140;16.304;2023-03-12T12:05:44;99184.41;;;7.15;42.90
69855;BME280;57146;48.140;16.304;2023-03-12T12:13:37;99177.44;;;7.29;40.31
69855;BME280;57146;48.140;16.304;2023-03-12T12:16:23;99177.69;;;7.33;40.42
69855;BME280;57146;48.140;16.304;2023-03-12T12:19:46;99178.72;;;7.32;40.53
69855;BME280;57146;48.140;16.304;2023-03-12T12:22:45;99175.53;;;7.35;40.16
69855;BME280;57146;48.140;16.304;2023-03-12T12:25:27;99172.38;;;7.38;40.08
69855;BME280;57146;48.140;16.304;2023-03-12T12:28:27;99177.03;;;7.41;40.13
69855;BME280;57146;48.140;16.304;2023-03-12T12:34:29;99173.22;;;7.33;40.09
69855;BME280;57146;48.140;16.304;2023-03-12T12:43:20;99173.31;;;7.47;39.19
69855;BME280;57146;48.140;16.304;2023-03-12T12:45:49;99162.53;;;7.49;39.23
69855;BME280;57146;48.140;16.304;2023-03-12T12:48:23;99160.91;;;7.53;39.07
69855;BME280;57146;48.140;16.304;2023-03-12T12:50:54;99147.81;;;7.53;38.89
69855;BME280;57146;48.140;16.304;2023-03-12T12:53:31;99149.31;;;7.59;39.19
69855;BME280;57146;48.140;16.304;2023-03-12T12:56:21;99156.88;;;7.60;39.58
69855;BME280;57146;48.140;16.304;2023-03-12T13:01:40;99138.19;;;7.67;36.71
69855;BME280;57146;48.140;16.304;2023-03-12T13:04:12;99152.03;;;7.73;35.84
69855;BME280;57146;48.140;16.304;2023-03-12T13:09:47;99158.94;;;7.63;39.48
69855;BME280;57146;48.140;16.304;2023-03-12T13:12:30;99168.06;;;7.47;40.89
69855;BME280;57146;48.140;16.304;2023-03-12T13:15:00;99159.38;;;7.52;42.24
69855;BME280;57146;48.140;16.304;2023-03-12T13:17:32;99153.06;;;7.53;41.46
69855;BME280;57146;48.140;16.304;2023-03-12T13:20:16;99162.69;;;7.57;41.91
69855;BME280;57146;48.140;16.304;2023-03-12T13:33:51;99164.97;;;7.64;40.70
69855;BME280;57146;48.140;16.304;2023-03-12T13:36:25;99158.94;;;7.63;42.25
69855;BME280;57146;48.140;16.304;2023-03-12T13:41:56;99182.66;;;7.53;41.78
69855;BME280;57146;48.140;16.304;2023-03-12T13:47:00;99171.13;;;7.54;41.52
69855;BME280;57146;48.140;16.304;2023-03-12T13:49:56;99171.63;;;7.56;41.88
69855;BME280;57146;48.140;16.304;2023-03-12T13:52:27;99183.81;;;7.66;40.77
69855;BME280;57146;48.140;16.304;2023-03-12T13:55:15;99173.75;;;7.73;40.39
69855;BME280;57146;48.140;16.304;2023-03-12T13:58:08;99186.78;;;7.78;40.32
69855;BME280;57146;48.140;16.304;2023-03-12T14:00:43;99192.59;;;7.75;41.32
69855;BME280;57146;48.140;16.304;2023-03-12T14:03:34;99191.97;;;7.83;40.75
69855;BME280;57146;48.140;16.304;2023-03-12T14:06:16;99195.16;;;7.80;40.89
69855;BME280;57146;48.140;16.304;2023-03-12T14:17:23;99188.53;;;7.64;41.41
69855;BME280;57146;48.140;16.304;2023-03-12T14:22:23;99193.13;;;7.53;41.75
69855;BME280;57146;48.140;16.304;2023-03-12T14:24:58;99189.06;;;7.66;41.01
69855;BME280;57146;48.140;16.304;2023-03-12T14:27:30;99195.13;;;7.61;41.86
69855;BME280;57146;48.140;16.304;2023-03-12T14:30:14;99194.72;;;7.54;41.85
69855;BME280;57146;48.140;16.304;2023-03-12T14:32:46;99193.19;;;7.48;42.20
69855;BME280;57146;48.140;16.304;2023-03-12T14:35:19;99199.22;;;7.49;42.59
69855;BME280;57146;48.140;16.304;2023-03-12T14:37:55;99195.47;;;7.55;42.30
69855;BME280;57146;48.140;16.304;2023-03-12T14:45:49;99197.25;;;7.59;41.90
69855;BME280;57146;48.140;16.304;2023-03-12T14:48:33;99196.97;;;7.61;42.02
69855;BME280;57146;48.140;16.304;2023-03-12T14:51:03;99196.53;;;7.54;42.70
69855;BME280;57146;48.140;16.304;2023-03-12T14:53:36;99192.91;;;7.50;42.83
69855;BME280;57146;48.140;16.304;2023-03-12T14:56:35;99194.84;;;7.63;40.81
69855;BME280;57146;48.140;16.304;2023-03-12T14:59:22;99193.22;;;7.67;41.00
69855;BME280;57146;48.140;16.304;2023-03-12T15:01:50;99183.16;;;7.74;40.50
69855;BME280;57146;48.140;16.304;2023-03-12T15:04:22;99188.28;;;7.65;41.92
69855;BME280;57146;48.140;16.304;2023-03-12T15:06:56;99179.25;;;7.72;40.38
69855;BME280;57146;48.140;16.304;2023-03-12T15:09:27;99188.84;;;7.81;39.89
69855;BME280;57146;48.140;16.304;2023-03-12T15:11:56;99194.28;;;7.85;40.66
69855;BME280;57146;48.140;16.304;2023-03-12T15:14:27;99191.63;;;7.90;41.09
69855;BME280;57146;48.140;16.304;2023-03-12T15:16:57;99192.97;;;7.87;41.76
69855;BME280;57146;48.140;16.304;2023-03-12T15:19:32;99182.53;;;7.82;41.97
69855;BME280;57146;48.140;16.304;2023-03-12T15:22:02;99176.84;;;7.75;42.48
69855;BME280;57146;48.140;16.304;2023-03-12T15:24:37;99175.75;;;7.81;42.93
69855;BME280;57146;48.140;16.304;2023-03-12T15:29:51;99179.84;;;7.68;44.10
69855;BME280;57146;48.140;16.304;2023-03-12T15:32:20;99172.63;;;7.79;43.15
69855;BME280;57146;48.140;16.304;2023-03-12T15:34:48;99172.63;;;7.79;42.95